• Join FlightAware (Why Join?)
  • Login
  • US Flag 
05:18AM EDT


 

Airport Tracker/Info


-or-


 

Live Flight TrackerFlight Track Log ✈ CHQ6029 ✈ 10-May-2013 ✈ KLEX - KLGA

Flight Track Log - Related Links

Times and Time Zones

All times are in EDT time to prevent confusion due to time zone crossing. See the CHQ6029 flight status page for this flight to view local times or setup timezone preferences in your user account.

Time Position Orientation Groundspeed Altitude Reporting Facility
EDT Latitude Longitude Course Direction KTS MPH feet Rate Location/Type
06:54AM 38.0025 -84.6408 96° East 161 185 2,800  Level Indianapolis Center
06:55AM 37.9711 -84.5978 133° Southeast 228 262 5,000 2,160 Climbing Indianapolis Center
06:56AM 37.9667 -84.5100 94° East 244 281 7,200 2,100 Climbing Indianapolis Center
06:57AM 37.9453 -84.0720 96° East  Level FlightAware Approximate
06:57AM 37.9631 -84.4144 93° East 264 304 9,300  Level Indianapolis Center
06:58AM 37.9345 -83.9315 96° East  Level FlightAware Approximate
06:58AM 37.9583 -84.3069 93° East 300 345 10,600  Level Indianapolis Center
06:59AM 37.9333 -83.7903 90° East  Level FlightAware Approximate
06:59AM 37.9533 -84.1861 93° East 333 383 12,000  Level Indianapolis Center
07:00AM 37.9228 -83.6562 96° East  Level FlightAware Approximate
07:00AM 37.9481 -84.0594 93° East 354 407 13,700  Level Indianapolis Center
07:01AM 37.9414 -83.9097 93° East 364 419 15,600 1,680 Climbing Indianapolis Center
07:02AM 37.9361 -83.7772 93° East 375 432 17,200 1,500 Climbing Indianapolis Center
07:03AM 37.9289 -83.6422 94° East 380 437 18,700 1,380 Climbing Indianapolis Center
07:05AM 37.9225 -83.5072 93° East 383 441 20,100 1,380 Climbing Indianapolis Center
07:06AM 37.9150 -83.3678 94° East 394 453 21,600 1,440 Climbing Indianapolis Center
07:07AM 37.9086 -83.2247 93° East 404 465 23,100 1,440 Climbing Indianapolis Center
07:08AM 37.9006 -83.0828 94° East 404 465 24,600 1,380 Climbing Indianapolis Center
07:09AM 37.8931 -82.9392 94° East 405 466 26,000 1,320 Climbing Indianapolis Center
07:10AM 37.8864 -82.7986 93° East 401 461 27,300 1,200 Climbing Indianapolis Center
07:11AM 37.8781 -82.6569 94° East 405 466 28,500 780 Climbing Indianapolis Center
07:12AM 37.8694 -82.5128 94° East 408 470 29,000 240 Climbing Indianapolis Center
07:13AM 37.8608 -82.3567 94° East 442 509 29,000  Level Indianapolis Center
07:14AM 37.8511 -82.1975 94° East 451 519 29,000  Level Indianapolis Center
07:15AM 37.8436 -82.0542 94° East 439 505 29,000  Level Indianapolis Center
07:16AM 37.8322 -81.8939 95° East 431 496 29,000  Level Indianapolis Center
07:17AM 37.8214 -81.7206 94° East 424 488 29,000  Level Indianapolis Center
07:18AM 37.8114 -81.5725 95° East 422 486 29,000  Level Indianapolis Center
07:19AM 37.8017 -81.4325 95° East 420 483 29,000  Level Indianapolis Center
07:20AM 37.7919 -81.2853 95° East 430 495 29,000  Level Indianapolis Center
07:21AM 37.7817 -81.1328 95° East 446 513 29,000  Level Indianapolis Center
07:22AM 37.7894 -80.9764 86° East 437 503 29,000  Level Washington Center
07:23AM 37.7986 -80.8167 86° East 442 509 29,000  Level Washington Center
07:24AM 37.8111 -80.6731 84° East 454 522 29,000  Level Washington Center
07:25AM 37.8203 -80.5053 86° East 459 528 29,000  Level Washington Center
07:26AM 37.8308 -80.3456 85° East 459 528 29,000  Level Washington Center
07:27AM 37.8414 -80.1806 85° East 459 528 29,000  Level Washington Center
07:28AM 37.8525 -79.9997 85° East 459 528 29,000  Level Washington Center
07:29AM 37.8625 -79.8372 85° East 459 528 29,000  Level Washington Center
07:30AM 37.8722 -79.6747 86° East 459 528 29,000  Level Washington Center
07:31AM 37.8842 -79.5094 85° East 459 528 29,000  Level Washington Center
07:32AM 37.8914 -79.3442 87° East 459 528 29,000  Level Washington Center
07:33AM 37.9006 -79.1789 86° East 464 534 29,000  Level Washington Center
07:34AM 37.9133 -79.0294 84° East 464 534 29,000  Level Washington Center
07:35AM 37.9347 -78.8617 81° East 464 534 29,000  Level Washington Center
07:36AM 37.9536 -78.6967 82° East 475 547 29,000  Level Washington Center
07:37AM 37.9728 -78.5264 82° East 482 555 29,000  Level Washington Center
07:38AM 37.9958 -78.3400 81° East 482 555 29,000  Level Washington Center
07:39AM 38.0114 -78.2036 82° East 482 555 29,000  Level Washington Center
07:40AM 38.0214 -78.0194 86° East 482 555 29,000  Level Washington Center
07:41AM 38.0311 -77.8483 86° East 477 549 29,000  Level Washington Center
07:42AM 38.0425 -77.6747 85° East 477 549 29,000  Level Washington Center
07:43AM 38.0725 -77.5094 77° East 477 549 29,000  Level Washington Center
07:44AM 38.1353 -77.3631 61° Northeast 472 543 29,000  Level Washington Center
07:45AM 38.1978 -77.2192 61° Northeast 461 531 29,000  Level Washington Center
07:46AM 38.2622 -77.0619 62° Northeast 461 531 29,000  Level Washington Center
07:47AM 38.3136 -76.9386 62° Northeast 455 524 29,000  Level Washington Center
07:48AM 38.3714 -76.7992 62° Northeast 440 506 29,000  Level Washington Center
07:49AM 38.4292 -76.6625 62° Northeast 434 499 29,000  Level Washington Center
07:50AM 38.4928 -76.5122 62° Northeast 429 494 29,000  Level Washington Center
07:51AM 38.5503 -76.3722 62° Northeast 429 494 29,000 -60 Level Washington Center
07:52AM 38.6094 -76.2292 62° Northeast 429 494 28,900 -480 Descending Washington Center
07:53AM 38.6828 -76.1128 51° Northeast 440 506 28,100 -840 Descending Washington Center
07:54AM 38.7750 -76.0044 42° Northeast 445 512 27,200 -600 Descending Washington Center
07:55AM 38.8608 -75.8928 45° Northeast 440 506 27,000 -120 Descending Washington Center
07:56AM 38.9506 -75.7864 43° Northeast 435 501 27,000  Level Washington Center
07:57AM 39.0486 -75.6933 36° Northeast 435 501 27,000  Level Washington Center
07:58AM 39.1467 -75.6022 36° Northeast 430 495 27,000  Level Washington Center
07:59AM 39.2447 -75.5111 36° Northeast 430 495 27,000 -180 Level Washington Center
08:00AM 39.3406 -75.4197 36° Northeast 430 495 26,700 -1,140 Descending Washington Center
08:01AM 39.4383 -75.3364 33° Northeast 424 488 24,800 -2,040 Descending Washington Center
08:02AM 39.5297 -75.2525 35° Northeast 412 474 22,800 -2,040 Descending Washington Center
08:03AM 39.6211 -75.1658 36° Northeast 406 467 20,800 -2,040 Descending Washington Center
08:04AM 39.7186 -75.0817 34° Northeast 398 458 18,700 -1,800 Descending Washington Center
08:05AM 39.7956 -75.0108 35° Northeast 381 438 17,300 -1,800 Descending Washington Center
08:06AM 39.8889 -74.9317 33° Northeast 375 432 15,200 -1,980 Descending Washington Center
08:07AM 39.9833 -74.8167 43° Northeast 355 409 12,900 -1,740 Descending New York TRACON
08:08AM 40.0500 -74.7167 49° Northeast 365 420 11,400 -1,500 Descending New York TRACON
08:09AM 40.1167 -74.6167 49° Northeast 382 440 10,000 -660 Descending New York TRACON
08:10AM 40.1833 -74.5167 49° Northeast 361 415 10,100  Climbing New York TRACON
08:11AM 40.2667 -74.4333 37° Northeast 363 418 10,000  Descending New York TRACON
08:12AM 40.3333 -74.3333 49° Northeast 366 421 10,100  Climbing New York TRACON
08:13AM 40.4000 -74.2333 49° Northeast 365 420 10,000 -120 Descending New York TRACON
08:14AM 40.4833 -74.1667 31° Northeast 298 343 9,900 -900 Descending New York TRACON
08:15AM 40.5333 -74.1000 45° Northeast 274 315 8,300 -1,800 Descending New York TRACON
08:16AM 40.6000 -74.0500 30° Northeast 263 303 6,500 -1,740 Descending New York TRACON
08:17AM 40.6500 -74.0000 37° Northeast 260 299 4,900 -1,200 Descending New York TRACON
08:18AM 40.7167 -73.9333 37° Northeast 263 303 4,100 -840 Descending New York TRACON